sensor_id;sensor_type;location;lat;lon;timestamp;temperature;humidity
13686;DHT22;6915;48.296;8.874;2022-07-29T00:00:10;17.30;99.90
13686;DHT22;6915;48.296;8.874;2022-07-29T00:02:37;17.10;99.90
13686;DHT22;6915;48.296;8.874;2022-07-29T00:05:05;17.00;99.90
13686;DHT22;6915;48.296;8.874;2022-07-29T00:07:32;17.10;99.90
13686;DHT22;6915;48.296;8.874;2022-07-29T00:09:58;17.00;99.90
13686;DHT22;6915;48.296;8.874;2022-07-29T00:12:25;17.00;99.90
13686;DHT22;6915;48.296;8.874;2022-07-29T00:14:54;17.00;99.90
13686;DHT22;6915;48.296;8.874;2022-07-29T00:17:22;17.00;99.90
13686;DHT22;6915;48.296;8.874;2022-07-29T00:19:49;17.00;99.90
13686;DHT22;6915;48.296;8.874;2022-07-29T00:22:16;16.90;99.90
13686;DHT22;6915;48.296;8.874;2022-07-29T00:24:43;17.00;99.90
13686;DHT22;6915;48.296;8.874;2022-07-29T00:27:10;16.90;99.90
13686;DHT22;6915;48.296;8.874;2022-07-29T00:29:37;17.00;99.90
13686;DHT22;6915;48.296;8.874;2022-07-29T00:32:05;16.90;99.90
13686;DHT22;6915;48.296;8.874;2022-07-29T00:34:33;16.80;99.90
13686;DHT22;6915;48.296;8.874;2022-07-29T00:37:17;16.80;99.90
13686;DHT22;6915;48.296;8.874;2022-07-29T00:39:44;16.70;99.90
13686;DHT22;6915;48.296;8.874;2022-07-29T00:42:11;16.60;99.90
13686;DHT22;6915;48.296;8.874;2022-07-29T00:44:38;16.60;99.90
13686;DHT22;6915;48.296;8.874;2022-07-29T00:47:05;16.60;99.90
13686;DHT22;6915;48.296;8.874;2022-07-29T00:49:34;16.60;99.90
13686;DHT22;6915;48.296;8.874;2022-07-29T00:52:02;16.70;99.90
13686;DHT22;6915;48.296;8.874;2022-07-29T00:54:29;16.60;99.90
13686;DHT22;6915;48.296;8.874;2022-07-29T00:56:58;16.60;99.90
13686;DHT22;6915;48.296;8.874;2022-07-29T00:59:25;16.70;99.90
13686;DHT22;6915;48.296;8.874;2022-07-29T01:01:53;16.60;99.90
13686;DHT22;6915;48.296;8.874;2022-07-29T01:04:20;16.60;99.90
13686;DHT22;6915;48.296;8.874;2022-07-29T01:06:49;16.70;99.90
13686;DHT22;6915;48.296;8.874;2022-07-29T01:09:18;16.60;99.90
13686;DHT22;6915;48.296;8.874;2022-07-29T01:11:46;16.60;99.90
13686;DHT22;6915;48.296;8.874;2022-07-29T01:14:14;16.50;99.90
13686;DHT22;6915;48.296;8.874;2022-07-29T01:16:46;16.60;99.90
13686;DHT22;6915;48.296;8.874;2022-07-29T01:19:28;16.50;99.90
13686;DHT22;6915;48.296;8.874;2022-07-29T01:22:14;16.60;99.90
13686;DHT22;6915;48.296;8.874;2022-07-29T01:28:03;16.60;99.90
13686;DHT22;6915;48.296;8.874;2022-07-29T01:30:35;16.70;99.90
13686;DHT22;6915;48.296;8.874;2022-07-29T01:33:15;16.70;99.90
13686;DHT22;6915;48.296;8.874;2022-07-29T01:36:00;16.80;99.90
13686;DHT22;6915;48.296;8.874;2022-07-29T01:38:29;16.80;99.90
13686;DHT22;6915;48.296;8.874;2022-07-29T01:41:02;16.90;99.90
13686;DHT22;6915;48.296;8.874;2022-07-29T01:43:35;17.00;99.90
13686;DHT22;6915;48.296;8.874;2022-07-29T01:46:10;17.00;99.90
13686;DHT22;6915;48.296;8.874;2022-07-29T01:48:42;17.10;99.90
13686;DHT22;6915;48.296;8.874;2022-07-29T01:51:16;17.10;99.90
13686;DHT22;6915;48.296;8.874;2022-07-29T01:53:50;17.10;99.90
13686;DHT22;6915;48.296;8.874;2022-07-29T01:56:19;17.10;99.90
13686;DHT22;6915;48.296;8.874;2022-07-29T01:58:48;17.00;99.90
13686;DHT22;6915;48.296;8.874;2022-07-29T02:01:18;17.00;99.90
13686;DHT22;6915;48.296;8.874;2022-07-29T02:03:46;17.00;99.90
13686;DHT22;6915;48.296;8.874;2022-07-29T02:06:17;17.00;99.90
13686;DHT22;6915;48.296;8.874;2022-07-29T02:08:45;16.90;99.90
13686;DHT22;6915;48.296;8.874;2022-07-29T02:11:13;16.80;99.90
13686;DHT22;6915;48.296;8.874;2022-07-29T02:13:41;16.90;99.90
13686;DHT22;6915;48.296;8.874;2022-07-29T02:16:10;17.00;99.90
13686;DHT22;6915;48.296;8.874;2022-07-29T02:18:41;16.90;99.90
13686;DHT22;6915;48.296;8.874;2022-07-29T02:21:10;16.80;99.90
13686;DHT22;6915;48.296;8.874;2022-07-29T02:23:38;16.80;99.90
13686;DHT22;6915;48.296;8.874;2022-07-29T02:26:07;16.80;99.90
13686;DHT22;6915;48.296;8.874;2022-07-29T02:28:35;16.70;99.90
13686;DHT22;6915;48.296;8.874;2022-07-29T02:31:03;16.60;99.90
13686;DHT22;6915;48.296;8.874;2022-07-29T02:33:31;16.50;99.90
13686;DHT22;6915;48.296;8.874;2022-07-29T02:36:01;16.50;99.90
13686;DHT22;6915;48.296;8.874;2022-07-29T02:38:28;16.40;99.90
13686;DHT22;6915;48.296;8.874;2022-07-29T02:41:17;16.40;99.90
13686;DHT22;6915;48.296;8.874;2022-07-29T02:43:47;16.30;99.90
13686;DHT22;6915;48.296;8.874;2022-07-29T02:46:19;16.30;99.90
13686;DHT22;6915;48.296;8.874;2022-07-29T02:48:54;16.20;99.90
13686;DHT22;6915;48.296;8.874;2022-07-29T02:51:28;16.30;99.90
13686;DHT22;6915;48.296;8.874;2022-07-29T02:53:57;16.20;99.90
13686;DHT22;6915;48.296;8.874;2022-07-29T02:56:28;16.20;99.90
13686;DHT22;6915;48.296;8.874;2022-07-29T02:59:03;16.10;99.90
13686;DHT22;6915;48.296;8.874;2022-07-29T03:01:32;16.00;99.90
13686;DHT22;6915;48.296;8.874;2022-07-29T03:04:03;16.00;99.90
13686;DHT22;6915;48.296;8.874;2022-07-29T03:06:33;15.90;99.90
13686;DHT22;6915;48.296;8.874;2022-07-29T03:09:01;15.80;99.90
13686;DHT22;6915;48.296;8.874;2022-07-29T03:11:29;15.70;99.90
13686;DHT22;6915;48.296;8.874;2022-07-29T03:13:57;15.70;99.90
13686;DHT22;6915;48.296;8.874;2022-07-29T03:16:24;15.80;99.90
13686;DHT22;6915;48.296;8.874;2022-07-29T03:18:52;15.80;99.90
13686;DHT22;6915;48.296;8.874;2022-07-29T03:21:19;15.80;99.90
13686;DHT22;6915;48.296;8.874;2022-07-29T03:23:48;15.80;99.90
13686;DHT22;6915;48.296;8.874;2022-07-29T03:26:15;15.80;99.90
13686;DHT22;6915;48.296;8.874;2022-07-29T03:28:42;15.80;99.90
13686;DHT22;6915;48.296;8.874;2022-07-29T03:31:09;15.70;99.90
13686;DHT22;6915;48.296;8.874;2022-07-29T03:33:36;15.70;99.90
13686;DHT22;6915;48.296;8.874;2022-07-29T03:36:03;15.60;99.90
13686;DHT22;6915;48.296;8.874;2022-07-29T03:38:30;15.40;99.90
13686;DHT22;6915;48.296;8.874;2022-07-29T03:41:04;15.50;99.90
13686;DHT22;6915;48.296;8.874;2022-07-29T03:43:35;15.50;99.90
13686;DHT22;6915;48.296;8.874;2022-07-29T03:46:04;15.40;99.90
13686;DHT22;6915;48.296;8.874;2022-07-29T03:48:35;15.30;99.90
13686;DHT22;6915;48.296;8.874;2022-07-29T03:51:03;15.30;99.90
13686;DHT22;6915;48.296;8.874;2022-07-29T03:53:31;15.20;99.90
13686;DHT22;6915;48.296;8.874;2022-07-29T03:56:02;15.20;99.90
13686;DHT22;6915;48.296;8.874;2022-07-29T03:58:30;15.20;99.90
13686;DHT22;6915;48.296;8.874;2022-07-29T04:00:58;15.20;99.90
13686;DHT22;6915;48.296;8.874;2022-07-29T04:03:25;15.20;99.90
13686;DHT22;6915;48.296;8.874;2022-07-29T04:06:03;15.20;99.90
13686;DHT22;6915;48.296;8.874;2022-07-29T04:08:31;15.00;99.90
13686;DHT22;6915;48.296;8.874;2022-07-29T04:10:58;15.00;99.90
13686;DHT22;6915;48.296;8.874;2022-07-29T04:13:27;15.00;99.90
13686;DHT22;6915;48.296;8.874;2022-07-29T04:15:54;15.10;99.90
13686;DHT22;6915;48.296;8.874;2022-07-29T04:18:21;15.10;99.90
13686;DHT22;6915;48.296;8.874;2022-07-29T04:20:48;15.00;99.90
13686;DHT22;6915;48.296;8.874;2022-07-29T04:23:15;15.00;99.90
13686;DHT22;6915;48.296;8.874;2022-07-29T04:25:42;15.10;99.90
13686;DHT22;6915;48.296;8.874;2022-07-29T04:28:10;15.40;99.90
13686;DHT22;6915;48.296;8.874;2022-07-29T04:30:38;15.80;99.90
13686;DHT22;6915;48.296;8.874;2022-07-29T04:33:06;16.40;99.90
13686;DHT22;6915;48.296;8.874;2022-07-29T04:35:35;17.10;99.90
13686;DHT22;6915;48.296;8.874;2022-07-29T04:38:03;17.70;99.90
13686;DHT22;6915;48.296;8.874;2022-07-29T04:40:30;18.00;99.90
13686;DHT22;6915;48.296;8.874;2022-07-29T04:42:59;18.50;99.90
13686;DHT22;6915;48.296;8.874;2022-07-29T04:45:26;18.70;99.90
13686;DHT22;6915;48.296;8.874;2022-07-29T04:47:54;18.70;99.90
13686;DHT22;6915;48.296;8.874;2022-07-29T04:50:21;18.50;99.90
13686;DHT22;6915;48.296;8.874;2022-07-29T04:52:48;18.30;99.90
13686;DHT22;6915;48.296;8.874;2022-07-29T04:55:15;18.20;99.90
13686;DHT22;6915;48.296;8.874;2022-07-29T04:57:42;18.10;99.90
13686;DHT22;6915;48.296;8.874;2022-07-29T05:00:10;17.90;99.90
13686;DHT22;6915;48.296;8.874;2022-07-29T05:02:37;17.70;99.90
13686;DHT22;6915;48.296;8.874;2022-07-29T05:05:06;17.40;99.90
13686;DHT22;6915;48.296;8.874;2022-07-29T05:07:33;17.30;99.90
13686;DHT22;6915;48.296;8.874;2022-07-29T05:10:00;17.20;99.90
13686;DHT22;6915;48.296;8.874;2022-07-29T05:12:27;17.20;99.90
13686;DHT22;6915;48.296;8.874;2022-07-29T05:14:54;17.10;99.90
13686;DHT22;6915;48.296;8.874;2022-07-29T05:17:21;17.10;99.90
13686;DHT22;6915;48.296;8.874;2022-07-29T05:19:48;17.70;99.90
13686;DHT22;6915;48.296;8.874;2022-07-29T05:22:18;18.80;99.90
13686;DHT22;6915;48.296;8.874;2022-07-29T05:24:45;19.80;99.90
13686;DHT22;6915;48.296;8.874;2022-07-29T05:27:12;20.90;99.90
13686;DHT22;6915;48.296;8.874;2022-07-29T05:29:40;21.90;37.90
13686;DHT22;6915;48.296;8.874;2022-07-29T05:32:06;22.40;1.00
13686;DHT22;6915;48.296;8.874;2022-07-29T05:34:34;22.20;1.00
13686;DHT22;6915;48.296;8.874;2022-07-29T05:37:01;21.50;1.00
13686;DHT22;6915;48.296;8.874;2022-07-29T05:39:29;20.80;99.90
13686;DHT22;6915;48.296;8.874;2022-07-29T05:41:56;20.40;99.90
13686;DHT22;6915;48.296;8.874;2022-07-29T05:44:23;20.00;99.90
13686;DHT22;6915;48.296;8.874;2022-07-29T05:46:50;19.80;99.90
13686;DHT22;6915;48.296;8.874;2022-07-29T05:49:17;19.50;99.90
13686;DHT22;6915;48.296;8.874;2022-07-29T05:51:44;19.60;99.90
13686;DHT22;6915;48.296;8.874;2022-07-29T05:54:11;19.70;99.90
13686;DHT22;6915;48.296;8.874;2022-07-29T05:56:40;20.20;99.90
13686;DHT22;6915;48.296;8.874;2022-07-29T05:59:07;20.90;99.90
13686;DHT22;6915;48.296;8.874;2022-07-29T06:01:34;21.40;99.90
13686;DHT22;6915;48.296;8.874;2022-07-29T06:04:04;21.70;99.90
13686;DHT22;6915;48.296;8.874;2022-07-29T06:06:32;21.80;99.90
13686;DHT22;6915;48.296;8.874;2022-07-29T06:08:59;21.70;99.90
13686;DHT22;6915;48.296;8.874;2022-07-29T06:11:26;21.60;99.90
13686;DHT22;6915;48.296;8.874;2022-07-29T06:13:54;21.50;99.90
13686;DHT22;6915;48.296;8.874;2022-07-29T06:16:21;21.30;99.90
13686;DHT22;6915;48.296;8.874;2022-07-29T06:18:48;21.10;99.90
13686;DHT22;6915;48.296;8.874;2022-07-29T06:21:15;21.10;99.90
13686;DHT22;6915;48.296;8.874;2022-07-29T06:23:42;21.30;81.60
13686;DHT22;6915;48.296;8.874;2022-07-29T06:26:11;21.70;1.20
13686;DHT22;6915;48.296;8.874;2022-07-29T06:28:37;22.00;3.70
13686;DHT22;6915;48.296;8.874;2022-07-29T06:31:06;22.20;1.00
13686;DHT22;6915;48.296;8.874;2022-07-29T06:33:33;22.20;1.00
13686;DHT22;6915;48.296;8.874;2022-07-29T06:36:00;22.50;1.00
13686;DHT22;6915;48.296;8.874;2022-07-29T06:38:29;22.50;1.00
13686;DHT22;6915;48.296;8.874;2022-07-29T06:40:56;22.50;1.00
13686;DHT22;6915;48.296;8.874;2022-07-29T06:43:26;22.70;1.00
13686;DHT22;6915;48.296;8.874;2022-07-29T06:45:54;22.70;1.00
13686;DHT22;6915;48.296;8.874;2022-07-29T06:48:23;22.70;5.00
13686;DHT22;6915;48.296;8.874;2022-07-29T06:50:50;22.90;1.00
13686;DHT22;6915;48.296;8.874;2022-07-29T06:53:17;22.90;1.00
13686;DHT22;6915;48.296;8.874;2022-07-29T06:55:44;22.70;1.00
13686;DHT22;6915;48.296;8.874;2022-07-29T06:58:11;22.50;1.00
13686;DHT22;6915;48.296;8.874;2022-07-29T07:00:39;22.70;1.00
13686;DHT22;6915;48.296;8.874;2022-07-29T07:03:06;23.00;1.00
13686;DHT22;6915;48.296;8.874;2022-07-29T07:05:34;23.60;1.00
13686;DHT22;6915;48.296;8.874;2022-07-29T07:08:02;23.90;1.00
13686;DHT22;6915;48.296;8.874;2022-07-29T07:10:29;24.00;1.00
13686;DHT22;6915;48.296;8.874;2022-07-29T07:12:56;23.70;1.00
13686;DHT22;6915;48.296;8.874;2022-07-29T07:15:23;23.90;1.00
13686;DHT22;6915;48.296;8.874;2022-07-29T07:17:50;23.90;1.00
13686;DHT22;6915;48.296;8.874;2022-07-29T07:20:17;23.70;1.00
13686;DHT22;6915;48.296;8.874;2022-07-29T07:22:45;23.80;1.00
13686;DHT22;6915;48.296;8.874;2022-07-29T07:25:13;24.00;1.00
13686;DHT22;6915;48.296;8.874;2022-07-29T07:27:39;24.30;1.00
13686;DHT22;6915;48.296;8.874;2022-07-29T07:30:07;24.50;1.00
13686;DHT22;6915;48.296;8.874;2022-07-29T07:32:34;24.60;1.00
13686;DHT22;6915;48.296;8.874;2022-07-29T07:35:02;24.50;1.00
13686;DHT22;6915;48.296;8.874;2022-07-29T07:37:29;24.30;1.00
13686;DHT22;6915;48.296;8.874;2022-07-29T07:39:58;24.40;1.00
13686;DHT22;6915;48.296;8.874;2022-07-29T07:42:25;24.40;1.00
13686;DHT22;6915;48.296;8.874;2022-07-29T07:44:52;24.10;1.00
13686;DHT22;6915;48.296;8.874;2022-07-29T07:47:19;24.20;1.00
13686;DHT22;6915;48.296;8.874;2022-07-29T07:49:46;24.50;1.00
13686;DHT22;6915;48.296;8.874;2022-07-29T07:52:13;24.80;1.00
13686;DHT22;6915;48.296;8.874;2022-07-29T07:54:40;25.10;1.00
13686;DHT22;6915;48.296;8.874;2022-07-29T07:57:09;25.20;1.00
13686;DHT22;6915;48.296;8.874;2022-07-29T07:59:37;25.50;1.00
13686;DHT22;6915;48.296;8.874;2022-07-29T08:02:04;25.40;1.00
13686;DHT22;6915;48.296;8.874;2022-07-29T08:04:32;25.90;1.00
13686;DHT22;6915;48.296;8.874;2022-07-29T08:06:59;26.30;1.00
13686;DHT22;6915;48.296;8.874;2022-07-29T08:09:27;26.30;1.00
13686;DHT22;6915;48.296;8.874;2022-07-29T08:11:55;26.40;1.00
13686;DHT22;6915;48.296;8.874;2022-07-29T08:14:23;26.60;1.00
13686;DHT22;6915;48.296;8.874;2022-07-29T08:16:50;26.60;1.00
13686;DHT22;6915;48.296;8.874;2022-07-29T08:19:17;26.70;1.00
13686;DHT22;6915;48.296;8.874;2022-07-29T08:21:44;26.60;1.00
13686;DHT22;6915;48.296;8.874;2022-07-29T08:24:11;26.60;1.00
13686;DHT22;6915;48.296;8.874;2022-07-29T08:26:56;26.70;1.00
13686;DHT22;6915;48.296;8.874;2022-07-29T08:29:24;26.90;1.00
13686;DHT22;6915;48.296;8.874;2022-07-29T08:31:51;27.20;1.00
13686;DHT22;6915;48.296;8.874;2022-07-29T08:34:18;27.30;1.00
13686;DHT22;6915;48.296;8.874;2022-07-29T08:36:45;27.30;1.00
13686;DHT22;6915;48.296;8.874;2022-07-29T08:39:12;27.00;1.00
13686;DHT22;6915;48.296;8.874;2022-07-29T08:41:39;26.70;1.00
13686;DHT22;6915;48.296;8.874;2022-07-29T08:44:06;26.60;1.00
13686;DHT22;6915;48.296;8.874;2022-07-29T08:46:37;26.20;1.00
13686;DHT22;6915;48.296;8.874;2022-07-29T08:49:04;26.20;1.00
13686;DHT22;6915;48.296;8.874;2022-07-29T08:51:33;26.50;1.00
13686;DHT22;6915;48.296;8.874;2022-07-29T08:54:01;26.80;1.00
13686;DHT22;6915;48.296;8.874;2022-07-29T08:56:29;26.80;1.00
13686;DHT22;6915;48.296;8.874;2022-07-29T08:58:58;26.70;1.00
13686;DHT22;6915;48.296;8.874;2022-07-29T09:01:27;26.70;1.00
13686;DHT22;6915;48.296;8.874;2022-07-29T09:03:59;26.90;1.00
13686;DHT22;6915;48.296;8.874;2022-07-29T09:06:30;27.20;1.00
13686;DHT22;6915;48.296;8.874;2022-07-29T09:08:59;27.20;1.00
13686;DHT22;6915;48.296;8.874;2022-07-29T09:11:26;27.20;1.00
13686;DHT22;6915;48.296;8.874;2022-07-29T09:13:53;27.30;1.00
13686;DHT22;6915;48.296;8.874;2022-07-29T09:16:20;27.20;1.00
13686;DHT22;6915;48.296;8.874;2022-07-29T09:18:47;27.10;1.00
13686;DHT22;6915;48.296;8.874;2022-07-29T09:21:17;27.10;1.00
13686;DHT22;6915;48.296;8.874;2022-07-29T09:24:06;27.30;1.00
13686;DHT22;6915;48.296;8.874;2022-07-29T09:26:34;27.40;1.00
13686;DHT22;6915;48.296;8.874;2022-07-29T09:29:08;27.70;1.00
13686;DHT22;6915;48.296;8.874;2022-07-29T09:31:39;27.30;1.00
13686;DHT22;6915;48.296;8.874;2022-07-29T09:34:08;26.90;1.00
13686;DHT22;6915;48.296;8.874;2022-07-29T09:36:41;26.70;1.00
13686;DHT22;6915;48.296;8.874;2022-07-29T09:39:08;26.90;1.00
13686;DHT22;6915;48.296;8.874;2022-07-29T09:41:47;27.00;1.00
13686;DHT22;6915;48.296;8.874;2022-07-29T09:44:14;27.00;1.00
13686;DHT22;6915;48.296;8.874;2022-07-29T09:46:55;27.20;1.00
13686;DHT22;6915;48.296;8.874;2022-07-29T09:49:22;27.40;1.00
13686;DHT22;6915;48.296;8.874;2022-07-29T09:52:01;27.30;1.00
13686;DHT22;6915;48.296;8.874;2022-07-29T09:54:30;27.30;1.00
13686;DHT22;6915;48.296;8.874;2022-07-29T09:57:03;27.30;1.00
13686;DHT22;6915;48.296;8.874;2022-07-29T09:59:31;27.40;1.00
13686;DHT22;6915;48.296;8.874;2022-07-29T10:01:58;27.50;1.00
13686;DHT22;6915;48.296;8.874;2022-07-29T10:04:37;27.60;1.00
13686;DHT22;6915;48.296;8.874;2022-07-29T10:07:06;27.60;1.00
13686;DHT22;6915;48.296;8.874;2022-07-29T10:09:33;27.50;1.00
13686;DHT22;6915;48.296;8.874;2022-07-29T10:12:08;27.40;1.00
13686;DHT22;6915;48.296;8.874;2022-07-29T10:14:37;27.30;1.00
13686;DHT22;6915;48.296;8.874;2022-07-29T10:17:06;27.40;1.00
13686;DHT22;6915;48.296;8.874;2022-07-29T10:19:34;27.50;1.00
13686;DHT22;6915;48.296;8.874;2022-07-29T10:22:03;27.60;1.00
13686;DHT22;6915;48.296;8.874;2022-07-29T10:24:32;27.60;1.00
13686;DHT22;6915;48.296;8.874;2022-07-29T10:27:01;27.40;1.00
13686;DHT22;6915;48.296;8.874;2022-07-29T10:29:29;27.40;1.00
13686;DHT22;6915;48.296;8.874;2022-07-29T10:32:22;27.60;1.00
13686;DHT22;6915;48.296;8.874;2022-07-29T10:35:10;27.80;1.00
13686;DHT22;6915;48.296;8.874;2022-07-29T10:37:52;27.90;1.00
13686;DHT22;6915;48.296;8.874;2022-07-29T10:40:32;27.90;1.00
13686;DHT22;6915;48.296;8.874;2022-07-29T10:43:23;27.60;1.00
13686;DHT22;6915;48.296;8.874;2022-07-29T10:45:56;27.30;1.00
13686;DHT22;6915;48.296;8.874;2022-07-29T10:48:24;27.20;1.00
13686;DHT22;6915;48.296;8.874;2022-07-29T10:50:55;27.10;1.00
13686;DHT22;6915;48.296;8.874;2022-07-29T10:53:24;27.00;1.00
13686;DHT22;6915;48.296;8.874;2022-07-29T10:56:25;27.10;1.00
13686;DHT22;6915;48.296;8.874;2022-07-29T10:59:23;26.80;1.00
13686;DHT22;6915;48.296;8.874;2022-07-29T11:01:53;26.80;1.00
13686;DHT22;6915;48.296;8.874;2022-07-29T11:07:25;27.00;1.00
13686;DHT22;6915;48.296;8.874;2022-07-29T11:10:20;27.20;1.00
13686;DHT22;6915;48.296;8.874;2022-07-29T11:12:49;27.50;1.00
13686;DHT22;6915;48.296;8.874;2022-07-29T11:15:18;28.20;1.00
13686;DHT22;6915;48.296;8.874;2022-07-29T11:18:05;28.60;1.00
13686;DHT22;6915;48.296;8.874;2022-07-29T11:20:34;28.80;1.00
13686;DHT22;6915;48.296;8.874;2022-07-29T11:23:17;28.90;1.00
13686;DHT22;6915;48.296;8.874;2022-07-29T11:25:45;29.10;1.00
13686;DHT22;6915;48.296;8.874;2022-07-29T11:28:17;29.20;1.00
13686;DHT22;6915;48.296;8.874;2022-07-29T11:30:49;29.20;1.00
13686;DHT22;6915;48.296;8.874;2022-07-29T11:33:29;29.20;1.00
13686;DHT22;6915;48.296;8.874;2022-07-29T11:36:10;29.30;1.00
13686;DHT22;6915;48.296;8.874;2022-07-29T11:38:37;29.60;1.00
13686;DHT22;6915;48.296;8.874;2022-07-29T11:41:21;29.70;1.00
13686;DHT22;6915;48.296;8.874;2022-07-29T11:43:50;29.60;1.00
13686;DHT22;6915;48.296;8.874;2022-07-29T11:46:42;29.30;1.00
13686;DHT22;6915;48.296;8.874;2022-07-29T11:49:11;29.10;1.00
13686;DHT22;6915;48.296;8.874;2022-07-29T11:51:39;28.80;1.00
13686;DHT22;6915;48.296;8.874;2022-07-29T11:54:08;28.70;1.00
13686;DHT22;6915;48.296;8.874;2022-07-29T11:56:39;28.60;1.00
13686;DHT22;6915;48.296;8.874;2022-07-29T11:59:10;28.70;1.00
13686;DHT22;6915;48.296;8.874;2022-07-29T12:01:52;28.60;1.00
13686;DHT22;6915;48.296;8.874;2022-07-29T12:04:19;28.10;1.00
13686;DHT22;6915;48.296;8.874;2022-07-29T12:06:49;27.90;1.00
13686;DHT22;6915;48.296;8.874;2022-07-29T12:09:17;27.90;1.00
13686;DHT22;6915;48.296;8.874;2022-07-29T12:11:45;27.80;1.00
13686;DHT22;6915;48.296;8.874;2022-07-29T12:14:26;27.80;1.00
13686;DHT22;6915;48.296;8.874;2022-07-29T12:16:53;28.00;1.00
13686;DHT22;6915;48.296;8.874;2022-07-29T12:19:20;28.00;1.00
13686;DHT22;6915;48.296;8.874;2022-07-29T12:21:49;27.80;1.00
13686;DHT22;6915;48.296;8.874;2022-07-29T12:24:17;27.60;1.00
13686;DHT22;6915;48.296;8.874;2022-07-29T12:26:51;27.60;1.00
13686;DHT22;6915;48.296;8.874;2022-07-29T12:29:18;27.40;1.00
13686;DHT22;6915;48.296;8.874;2022-07-29T12:31:52;27.30;1.00
13686;DHT22;6915;48.296;8.874;2022-07-29T12:34:23;27.20;1.00
13686;DHT22;6915;48.296;8.874;2022-07-29T12:36:50;27.00;1.00
13686;DHT22;6915;48.296;8.874;2022-07-29T12:39:17;26.70;1.00
13686;DHT22;6915;48.296;8.874;2022-07-29T12:41:45;26.60;1.00
13686;DHT22;6915;48.296;8.874;2022-07-29T12:44:12;26.70;1.00
13686;DHT22;6915;48.296;8.874;2022-07-29T12:46:40;26.70;1.00
13686;DHT22;6915;48.296;8.874;2022-07-29T12:49:08;26.70;1.00
13686;DHT22;6915;48.296;8.874;2022-07-29T12:51:37;26.70;1.00
13686;DHT22;6915;48.296;8.874;2022-07-29T12:54:09;26.70;1.00
13686;DHT22;6915;48.296;8.874;2022-07-29T12:56:37;26.90;1.00
13686;DHT22;6915;48.296;8.874;2022-07-29T12:59:15;26.90;1.00
13686;DHT22;6915;48.296;8.874;2022-07-29T13:01:42;26.60;1.00
13686;DHT22;6915;48.296;8.874;2022-07-29T13:04:11;26.60;1.00
13686;DHT22;6915;48.296;8.874;2022-07-29T13:06:58;26.50;1.00
13686;DHT22;6915;48.296;8.874;2022-07-29T13:09:36;26.50;1.00
13686;DHT22;6915;48.296;8.874;2022-07-29T13:12:06;26.50;1.00
13686;DHT22;6915;48.296;8.874;2022-07-29T13:14:36;26.50;1.00
13686;DHT22;6915;48.296;8.874;2022-07-29T13:17:05;26.40;1.00
13686;DHT22;6915;48.296;8.874;2022-07-29T13:19:37;26.40;1.00
13686;DHT22;6915;48.296;8.874;2022-07-29T13:22:06;26.30;1.00
13686;DHT22;6915;48.296;8.874;2022-07-29T13:24:33;26.20;1.00
13686;DHT22;6915;48.296;8.874;2022-07-29T13:27:00;26.30;1.00
13686;DHT22;6915;48.296;8.874;2022-07-29T13:29:27;26.30;1.00
13686;DHT22;6915;48.296;8.874;2022-07-29T13:31:54;26.30;1.00
13686;DHT22;6915;48.296;8.874;2022-07-29T13:34:21;26.50;1.00
13686;DHT22;6915;48.296;8.874;2022-07-29T13:36:51;26.40;1.00
13686;DHT22;6915;48.296;8.874;2022-07-29T13:39:18;26.10;1.00
13686;DHT22;6915;48.296;8.874;2022-07-29T13:41:45;26.10;1.00
13686;DHT22;6915;48.296;8.874;2022-07-29T13:44:12;26.00;1.00
13686;DHT22;6915;48.296;8.874;2022-07-29T13:46:39;25.80;1.00
13686;DHT22;6915;48.296;8.874;2022-07-29T13:49:06;25.80;1.00
13686;DHT22;6915;48.296;8.874;2022-07-29T13:51:33;25.70;1.00
13686;DHT22;6915;48.296;8.874;2022-07-29T13:54:01;25.70;1.00
13686;DHT22;6915;48.296;8.874;2022-07-29T13:56:28;25.80;1.00
13686;DHT22;6915;48.296;8.874;2022-07-29T13:58:55;25.80;1.00
13686;DHT22;6915;48.296;8.874;2022-07-29T14:01:22;25.90;1.00
13686;DHT22;6915;48.296;8.874;2022-07-29T14:03:50;25.70;1.00
13686;DHT22;6915;48.296;8.874;2022-07-29T14:06:17;25.70;1.00
13686;DHT22;6915;48.296;8.874;2022-07-29T14:08:44;25.80;1.00
13686;DHT22;6915;48.296;8.874;2022-07-29T14:11:12;25.90;1.00
13686;DHT22;6915;48.296;8.874;2022-07-29T14:13:39;25.90;1.00
13686;DHT22;6915;48.296;8.874;2022-07-29T14:16:06;25.80;1.00
13686;DHT22;6915;48.296;8.874;2022-07-29T14:18:33;25.50;1.00
13686;DHT22;6915;48.296;8.874;2022-07-29T14:21:00;25.50;1.00
13686;DHT22;6915;48.296;8.874;2022-07-29T14:23:27;25.50;1.00
13686;DHT22;6915;48.296;8.874;2022-07-29T14:25:54;25.40;1.00
13686;DHT22;6915;48.296;8.874;2022-07-29T14:28:23;25.30;1.00
13686;DHT22;6915;48.296;8.874;2022-07-29T14:30:50;25.20;1.00
13686;DHT22;6915;48.296;8.874;2022-07-29T14:33:17;25.20;1.00
13686;DHT22;6915;48.296;8.874;2022-07-29T14:35:44;25.10;1.00
13686;DHT22;6915;48.296;8.874;2022-07-29T14:38:11;24.90;1.00
13686;DHT22;6915;48.296;8.874;2022-07-29T14:40:39;24.80;1.00
13686;DHT22;6915;48.296;8.874;2022-07-29T14:43:06;24.60;1.00
13686;DHT22;6915;48.296;8.874;2022-07-29T14:45:34;24.60;1.00
13686;DHT22;6915;48.296;8.874;2022-07-29T14:48:01;24.60;1.00
13686;DHT22;6915;48.296;8.874;2022-07-29T14:50:28;24.70;1.00
13686;DHT22;6915;48.296;8.874;2022-07-29T14:52:55;24.80;1.00
13686;DHT22;6915;48.296;8.874;2022-07-29T14:55:22;24.90;1.00
13686;DHT22;6915;48.296;8.874;2022-07-29T14:57:49;25.00;1.00
13686;DHT22;6915;48.296;8.874;2022-07-29T15:00:17;25.10;1.00
13686;DHT22;6915;48.296;8.874;2022-07-29T15:02:45;25.20;1.00
13686;DHT22;6915;48.296;8.874;2022-07-29T15:05:13;25.30;1.00
13686;DHT22;6915;48.296;8.874;2022-07-29T15:07:40;25.30;1.00
13686;DHT22;6915;48.296;8.874;2022-07-29T15:10:07;25.40;1.00
13686;DHT22;6915;48.296;8.874;2022-07-29T15:12:34;25.50;1.00
13686;DHT22;6915;48.296;8.874;2022-07-29T15:15:01;25.50;1.00
13686;DHT22;6915;48.296;8.874;2022-07-29T15:17:28;25.60;1.00
13686;DHT22;6915;48.296;8.874;2022-07-29T15:19:56;25.80;1.00
13686;DHT22;6915;48.296;8.874;2022-07-29T15:22:23;25.80;1.00
13686;DHT22;6915;48.296;8.874;2022-07-29T15:24:50;25.80;1.00
13686;DHT22;6915;48.296;8.874;2022-07-29T15:27:17;25.80;1.00
13686;DHT22;6915;48.296;8.874;2022-07-29T15:29:44;25.80;1.00
13686;DHT22;6915;48.296;8.874;2022-07-29T15:32:11;25.80;1.00
13686;DHT22;6915;48.296;8.874;2022-07-29T15:34:39;25.90;1.00
13686;DHT22;6915;48.296;8.874;2022-07-29T15:37:08;25.80;1.00
13686;DHT22;6915;48.296;8.874;2022-07-29T15:39:36;25.90;1.00
13686;DHT22;6915;48.296;8.874;2022-07-29T15:42:04;25.80;1.00
13686;DHT22;6915;48.296;8.874;2022-07-29T15:44:31;25.70;1.00
13686;DHT22;6915;48.296;8.874;2022-07-29T15:46:58;25.60;1.00
13686;DHT22;6915;48.296;8.874;2022-07-29T15:49:33;25.70;1.00
13686;DHT22;6915;48.296;8.874;2022-07-29T15:52:02;25.70;1.00
13686;DHT22;6915;48.296;8.874;2022-07-29T15:54:33;25.50;1.00
13686;DHT22;6915;48.296;8.874;2022-07-29T15:57:01;25.50;1.00
13686;DHT22;6915;48.296;8.874;2022-07-29T15:59:28;25.70;1.00
13686;DHT22;6915;48.296;8.874;2022-07-29T16:01:55;25.60;1.00
13686;DHT22;6915;48.296;8.874;2022-07-29T16:04:23;25.60;1.00
13686;DHT22;6915;48.296;8.874;2022-07-29T16:06:50;25.60;1.00
13686;DHT22;6915;48.296;8.874;2022-07-29T16:09:17;25.50;1.00
13686;DHT22;6915;48.296;8.874;2022-07-29T16:11:46;25.50;1.00
13686;DHT22;6915;48.296;8.874;2022-07-29T16:14:15;25.40;1.00